sensor_id;sensor_type;location;lat;lon;timestamp;P1;durP1;ratioP1;P2;durP2;ratioP2
9438;SDS011;5176;42.622;25.386;2023-04-25T00:00:53;8.43;;;7.67;;
9438;SDS011;5176;42.622;25.386;2023-04-25T00:03:24;8.50;;;7.60;;
9438;SDS011;5176;42.622;25.386;2023-04-25T00:05:53;7.77;;;7.00;;
9438;SDS011;5176;42.622;25.386;2023-04-25T00:08:23;9.23;;;6.80;;
9438;SDS011;5176;42.622;25.386;2023-04-25T00:10:52;7.80;;;7.10;;
9438;SDS011;5176;42.622;25.386;2023-04-25T00:13:21;6.93;;;6.23;;
9438;SDS011;5176;42.622;25.386;2023-04-25T00:15:49;10.07;;;6.67;;
9438;SDS011;5176;42.622;25.386;2023-04-25T00:18:19;7.40;;;6.70;;
9438;SDS011;5176;42.622;25.386;2023-04-25T00:20:50;7.27;;;6.40;;
9438;SDS011;5176;42.622;25.386;2023-04-25T00:23:19;6.47;;;5.87;;
9438;SDS011;5176;42.622;25.386;2023-04-25T00:25:47;6.70;;;6.00;;
9438;SDS011;5176;42.622;25.386;2023-04-25T00:28:17;5.33;;;4.90;;
9438;SDS011;5176;42.622;25.386;2023-04-25T00:30:45;5.10;;;4.70;;
9438;SDS011;5176;42.622;25.386;2023-04-25T00:33:15;5.67;;;4.60;;
9438;SDS011;5176;42.622;25.386;2023-04-25T00:35:44;7.20;;;4.60;;
9438;SDS011;5176;42.622;25.386;2023-04-25T00:38:14;9.17;;;4.77;;
9438;SDS011;5176;42.622;25.386;2023-04-25T00:40:43;6.40;;;4.43;;
9438;SDS011;5176;42.622;25.386;2023-04-25T00:43:11;5.33;;;4.87;;
9438;SDS011;5176;42.622;25.386;2023-04-25T00:45:40;5.20;;;4.70;;
9438;SDS011;5176;42.622;25.386;2023-04-25T00:48:09;6.80;;;5.00;;
9438;SDS011;5176;42.622;25.386;2023-04-25T00:50:38;4.40;;;4.10;;
9438;SDS011;5176;42.622;25.386;2023-04-25T00:53:06;4.10;;;3.70;;
9438;SDS011;5176;42.622;25.386;2023-04-25T00:55:37;3.50;;;3.30;;
9438;SDS011;5176;42.622;25.386;2023-04-25T00:58:06;3.80;;;3.50;;
9438;SDS011;5176;42.622;25.386;2023-04-25T01:00:35;3.67;;;3.30;;
9438;SDS011;5176;42.622;25.386;2023-04-25T01:03:04;3.30;;;3.03;;
9438;SDS011;5176;42.622;25.386;2023-04-25T01:05:33;3.07;;;2.87;;
9438;SDS011;5176;42.622;25.386;2023-04-25T01:08:01;6.53;;;3.27;;
9438;SDS011;5176;42.622;25.386;2023-04-25T01:10:30;2.90;;;2.70;;
9438;SDS011;5176;42.622;25.386;2023-04-25T01:13:00;2.10;;;2.00;;
9438;SDS011;5176;42.622;25.386;2023-04-25T01:15:29;2.90;;;2.70;;
9438;SDS011;5176;42.622;25.386;2023-04-25T01:17:58;2.90;;;2.70;;
9438;SDS011;5176;42.622;25.386;2023-04-25T01:20:28;3.03;;;2.60;;
9438;SDS011;5176;42.622;25.386;2023-04-25T01:22:58;2.20;;;2.10;;
9438;SDS011;5176;42.622;25.386;2023-04-25T01:25:28;2.30;;;2.20;;
9438;SDS011;5176;42.622;25.386;2023-04-25T01:27:57;2.43;;;2.23;;
9438;SDS011;5176;42.622;25.386;2023-04-25T01:30:26;2.50;;;2.40;;
9438;SDS011;5176;42.622;25.386;2023-04-25T01:32:55;2.80;;;2.60;;
9438;SDS011;5176;42.622;25.386;2023-04-25T01:35:25;3.20;;;3.00;;
9438;SDS011;5176;42.622;25.386;2023-04-25T01:37:53;3.30;;;3.00;;
9438;SDS011;5176;42.622;25.386;2023-04-25T01:40:24;3.57;;;3.27;;
9438;SDS011;5176;42.622;25.386;2023-04-25T01:42:53;3.53;;;3.20;;
9438;SDS011;5176;42.622;25.386;2023-04-25T01:45:22;3.50;;;3.27;;
9438;SDS011;5176;42.622;25.386;2023-04-25T01:47:51;3.47;;;3.13;;
9438;SDS011;5176;42.622;25.386;2023-04-25T01:50:19;3.13;;;2.90;;
9438;SDS011;5176;42.622;25.386;2023-04-25T01:52:48;3.10;;;2.90;;
9438;SDS011;5176;42.622;25.386;2023-04-25T01:55:17;3.20;;;3.00;;
9438;SDS011;5176;42.622;25.386;2023-04-25T01:57:46;3.57;;;3.30;;
9438;SDS011;5176;42.622;25.386;2023-04-25T02:00:15;3.10;;;2.90;;
9438;SDS011;5176;42.622;25.386;2023-04-25T02:02:43;3.60;;;3.30;;
9438;SDS011;5176;42.622;25.386;2023-04-25T02:05:12;3.60;;;3.30;;
9438;SDS011;5176;42.622;25.386;2023-04-25T02:07:43;3.40;;;3.10;;
9438;SDS011;5176;42.622;25.386;2023-04-25T02:10:12;3.57;;;3.27;;
9438;SDS011;5176;42.622;25.386;2023-04-25T02:12:41;3.57;;;3.27;;
9438;SDS011;5176;42.622;25.386;2023-04-25T02:15:11;3.70;;;3.40;;
9438;SDS011;5176;42.622;25.386;2023-04-25T02:17:40;3.33;;;3.07;;
9438;SDS011;5176;42.622;25.386;2023-04-25T02:20:09;3.50;;;3.30;;
9438;SDS011;5176;42.622;25.386;2023-04-25T02:22:39;3.57;;;3.27;;
9438;SDS011;5176;42.622;25.386;2023-04-25T02:25:08;3.63;;;3.07;;
9438;SDS011;5176;42.622;25.386;2023-04-25T02:27:38;3.87;;;3.50;;
9438;SDS011;5176;42.622;25.386;2023-04-25T02:30:07;3.50;;;3.20;;
9438;SDS011;5176;42.622;25.386;2023-04-25T02:32:37;3.10;;;2.87;;
9438;SDS011;5176;42.622;25.386;2023-04-25T02:35:06;3.90;;;3.60;;
9438;SDS011;5176;42.622;25.386;2023-04-25T02:37:38;4.50;;;3.13;;
9438;SDS011;5176;42.622;25.386;2023-04-25T02:40:08;5.83;;;3.83;;
9438;SDS011;5176;42.622;25.386;2023-04-25T02:42:37;3.13;;;2.87;;
9438;SDS011;5176;42.622;25.386;2023-04-25T02:45:06;3.83;;;3.50;;
9438;SDS011;5176;42.622;25.386;2023-04-25T02:47:35;3.10;;;2.80;;
9438;SDS011;5176;42.622;25.386;2023-04-25T02:50:06;3.70;;;3.40;;
9438;SDS011;5176;42.622;25.386;2023-04-25T02:52:35;4.07;;;3.77;;
9438;SDS011;5176;42.622;25.386;2023-04-25T02:55:04;4.10;;;3.80;;
9438;SDS011;5176;42.622;25.386;2023-04-25T02:57:33;4.30;;;3.90;;
9438;SDS011;5176;42.622;25.386;2023-04-25T03:00:03;4.63;;;4.07;;
9438;SDS011;5176;42.622;25.386;2023-04-25T03:02:33;7.03;;;4.10;;
9438;SDS011;5176;42.622;25.386;2023-04-25T03:05:02;5.10;;;4.10;;
9438;SDS011;5176;42.622;25.386;2023-04-25T03:07:32;4.90;;;4.50;;
9438;SDS011;5176;42.622;25.386;2023-04-25T03:10:01;5.00;;;4.60;;
9438;SDS011;5176;42.622;25.386;2023-04-25T03:12:30;5.17;;;4.33;;
9438;SDS011;5176;42.622;25.386;2023-04-25T03:14:58;4.40;;;3.83;;
9438;SDS011;5176;42.622;25.386;2023-04-25T03:17:27;6.07;;;4.27;;
9438;SDS011;5176;42.622;25.386;2023-04-25T03:19:55;4.30;;;4.00;;
9438;SDS011;5176;42.622;25.386;2023-04-25T03:22:25;6.10;;;4.10;;
9438;SDS011;5176;42.622;25.386;2023-04-25T03:24:55;4.87;;;4.47;;
9438;SDS011;5176;42.622;25.386;2023-04-25T03:27:23;4.97;;;4.30;;
9438;SDS011;5176;42.622;25.386;2023-04-25T03:29:52;4.70;;;4.30;;
9438;SDS011;5176;42.622;25.386;2023-04-25T03:32:21;5.17;;;4.43;;
9438;SDS011;5176;42.622;25.386;2023-04-25T03:34:50;5.70;;;4.50;;
9438;SDS011;5176;42.622;25.386;2023-04-25T03:37:18;4.90;;;4.50;;
9438;SDS011;5176;42.622;25.386;2023-04-25T03:39:47;5.73;;;4.70;;
9438;SDS011;5176;42.622;25.386;2023-04-25T03:42:17;8.80;;;4.63;;
9438;SDS011;5176;42.622;25.386;2023-04-25T03:44:46;5.50;;;5.00;;
9438;SDS011;5176;42.622;25.386;2023-04-25T03:47:15;7.53;;;5.10;;
9438;SDS011;5176;42.622;25.386;2023-04-25T03:49:44;6.10;;;5.20;;
9438;SDS011;5176;42.622;25.386;2023-04-25T03:52:12;7.43;;;5.33;;
9438;SDS011;5176;42.622;25.386;2023-04-25T03:54:41;6.00;;;5.40;;
9438;SDS011;5176;42.622;25.386;2023-04-25T03:57:09;6.00;;;5.40;;
9438;SDS011;5176;42.622;25.386;2023-04-25T03:59:39;6.63;;;5.97;;
9438;SDS011;5176;42.622;25.386;2023-04-25T04:02:08;5.80;;;4.73;;
9438;SDS011;5176;42.622;25.386;2023-04-25T04:04:36;6.60;;;5.40;;
9438;SDS011;5176;42.622;25.386;2023-04-25T04:07:05;5.83;;;5.23;;
9438;SDS011;5176;42.622;25.386;2023-04-25T04:09:33;5.67;;;4.87;;
9438;SDS011;5176;42.622;25.386;2023-04-25T04:12:02;5.40;;;4.93;;
9438;SDS011;5176;42.622;25.386;2023-04-25T04:14:31;5.47;;;4.97;;
9438;SDS011;5176;42.622;25.386;2023-04-25T04:17:01;6.40;;;5.50;;
9438;SDS011;5176;42.622;25.386;2023-04-25T04:19:29;5.00;;;4.60;;
9438;SDS011;5176;42.622;25.386;2023-04-25T04:21:58;6.83;;;6.23;;
9438;SDS011;5176;42.622;25.386;2023-04-25T04:24:26;7.43;;;6.70;;
9438;SDS011;5176;42.622;25.386;2023-04-25T04:26:55;5.47;;;4.97;;
9438;SDS011;5176;42.622;25.386;2023-04-25T04:29:25;5.10;;;4.67;;
9438;SDS011;5176;42.622;25.386;2023-04-25T04:31:54;5.27;;;4.80;;
9438;SDS011;5176;42.622;25.386;2023-04-25T04:34:24;4.93;;;4.53;;
9438;SDS011;5176;42.622;25.386;2023-04-25T04:36:53;4.40;;;4.00;;
9438;SDS011;5176;42.622;25.386;2023-04-25T04:39:22;5.87;;;4.77;;
9438;SDS011;5176;42.622;25.386;2023-04-25T04:41:51;5.93;;;5.33;;
9438;SDS011;5176;42.622;25.386;2023-04-25T04:44:19;5.67;;;5.17;;
9438;SDS011;5176;42.622;25.386;2023-04-25T04:46:48;6.37;;;5.47;;
9438;SDS011;5176;42.622;25.386;2023-04-25T04:49:17;5.60;;;5.10;;
9438;SDS011;5176;42.622;25.386;2023-04-25T04:51:46;7.00;;;5.80;;
9438;SDS011;5176;42.622;25.386;2023-04-25T04:54:16;6.60;;;6.00;;
9438;SDS011;5176;42.622;25.386;2023-04-25T04:56:45;10.07;;;9.03;;
9438;SDS011;5176;42.622;25.386;2023-04-25T04:59:15;8.07;;;7.27;;
9438;SDS011;5176;42.622;25.386;2023-04-25T05:01:43;8.07;;;7.27;;
9438;SDS011;5176;42.622;25.386;2023-04-25T05:04:13;8.10;;;6.90;;
9438;SDS011;5176;42.622;25.386;2023-04-25T05:06:42;8.27;;;7.50;;
9438;SDS011;5176;42.622;25.386;2023-04-25T05:09:13;6.13;;;5.63;;
9438;SDS011;5176;42.622;25.386;2023-04-25T05:11:41;7.17;;;6.47;;
9438;SDS011;5176;42.622;25.386;2023-04-25T05:14:10;29.97;;;22.43;;
9438;SDS011;5176;42.622;25.386;2023-04-25T05:16:38;7.93;;;6.93;;
9438;SDS011;5176;42.622;25.386;2023-04-25T05:19:07;10.40;;;7.13;;
9438;SDS011;5176;42.622;25.386;2023-04-25T05:21:36;7.87;;;6.40;;
9438;SDS011;5176;42.622;25.386;2023-04-25T05:24:05;8.37;;;7.57;;
9438;SDS011;5176;42.622;25.386;2023-04-25T05:26:35;8.73;;;7.93;;
9438;SDS011;5176;42.622;25.386;2023-04-25T05:29:05;13.50;;;12.13;;
9438;SDS011;5176;42.622;25.386;2023-04-25T05:31:33;15.03;;;12.40;;
9438;SDS011;5176;42.622;25.386;2023-04-25T05:34:03;13.33;;;11.33;;
9438;SDS011;5176;42.622;25.386;2023-04-25T05:36:32;11.70;;;10.60;;
9438;SDS011;5176;42.622;25.386;2023-04-25T05:39:01;14.33;;;11.90;;
9438;SDS011;5176;42.622;25.386;2023-04-25T05:41:30;13.00;;;11.73;;
9438;SDS011;5176;42.622;25.386;2023-04-25T05:44:01;14.20;;;12.70;;
9438;SDS011;5176;42.622;25.386;2023-04-25T05:46:29;13.97;;;12.63;;
9438;SDS011;5176;42.622;25.386;2023-04-25T05:48:58;19.00;;;13.37;;
9438;SDS011;5176;42.622;25.386;2023-04-25T05:51:27;7.93;;;7.23;;
9438;SDS011;5176;42.622;25.386;2023-04-25T05:53:55;12.10;;;10.87;;
9438;SDS011;5176;42.622;25.386;2023-04-25T05:56:24;11.43;;;10.30;;
9438;SDS011;5176;42.622;25.386;2023-04-25T05:58:54;7.77;;;7.07;;
9438;SDS011;5176;42.622;25.386;2023-04-25T06:01:24;9.33;;;8.43;;
9438;SDS011;5176;42.622;25.386;2023-04-25T06:03:52;8.33;;;7.53;;
9438;SDS011;5176;42.622;25.386;2023-04-25T06:06:21;8.47;;;7.67;;
9438;SDS011;5176;42.622;25.386;2023-04-25T06:08:50;9.33;;;8.33;;
9438;SDS011;5176;42.622;25.386;2023-04-25T06:11:18;6.60;;;6.10;;
9438;SDS011;5176;42.622;25.386;2023-04-25T06:13:47;7.17;;;6.47;;
9438;SDS011;5176;42.622;25.386;2023-04-25T06:16:15;6.10;;;5.60;;
9438;SDS011;5176;42.622;25.386;2023-04-25T06:18:45;7.10;;;6.37;;
9438;SDS011;5176;42.622;25.386;2023-04-25T06:21:14;8.70;;;7.90;;
9438;SDS011;5176;42.622;25.386;2023-04-25T06:23:43;10.23;;;9.30;;
9438;SDS011;5176;42.622;25.386;2023-04-25T06:26:11;10.93;;;9.80;;
9438;SDS011;5176;42.622;25.386;2023-04-25T06:28:40;12.27;;;11.07;;
9438;SDS011;5176;42.622;25.386;2023-04-25T06:31:09;12.23;;;10.33;;
9438;SDS011;5176;42.622;25.386;2023-04-25T06:33:37;12.83;;;11.07;;
9438;SDS011;5176;42.622;25.386;2023-04-25T06:36:08;13.67;;;11.60;;
9438;SDS011;5176;42.622;25.386;2023-04-25T06:38:36;12.60;;;11.30;;
9438;SDS011;5176;42.622;25.386;2023-04-25T06:41:05;15.37;;;11.00;;
9438;SDS011;5176;42.622;25.386;2023-04-25T06:43:34;13.37;;;10.17;;
9438;SDS011;5176;42.622;25.386;2023-04-25T06:46:02;12.73;;;9.67;;
9438;SDS011;5176;42.622;25.386;2023-04-25T06:48:31;11.87;;;10.67;;
9438;SDS011;5176;42.622;25.386;2023-04-25T06:51:00;11.80;;;10.60;;
9438;SDS011;5176;42.622;25.386;2023-04-25T06:53:30;12.87;;;11.57;;
9438;SDS011;5176;42.622;25.386;2023-04-25T06:55:59;12.67;;;11.00;;
9438;SDS011;5176;42.622;25.386;2023-04-25T06:58:29;13.47;;;11.63;;
9438;SDS011;5176;42.622;25.386;2023-04-25T07:00:57;13.10;;;11.73;;
9438;SDS011;5176;42.622;25.386;2023-04-25T07:03:26;14.60;;;12.17;;
9438;SDS011;5176;42.622;25.386;2023-04-25T07:05:55;14.03;;;11.80;;
9438;SDS011;5176;42.622;25.386;2023-04-25T07:08:23;12.83;;;11.47;;
9438;SDS011;5176;42.622;25.386;2023-04-25T07:10:53;13.37;;;11.97;;
9438;SDS011;5176;42.622;25.386;2023-04-25T07:13:22;13.70;;;12.30;;
9438;SDS011;5176;42.622;25.386;2023-04-25T07:15:51;15.00;;;12.30;;
9438;SDS011;5176;42.622;25.386;2023-04-25T07:18:20;11.43;;;10.03;;
9438;SDS011;5176;42.622;25.386;2023-04-25T07:20:48;11.33;;;10.23;;
9438;SDS011;5176;42.622;25.386;2023-04-25T07:23:17;11.50;;;10.30;;
9438;SDS011;5176;42.622;25.386;2023-04-25T07:25:46;12.03;;;10.77;;
9438;SDS011;5176;42.622;25.386;2023-04-25T07:28:16;12.87;;;10.40;;
9438;SDS011;5176;42.622;25.386;2023-04-25T07:30:45;12.20;;;10.77;;
9438;SDS011;5176;42.622;25.386;2023-04-25T07:33:14;12.37;;;11.17;;
9438;SDS011;5176;42.622;25.386;2023-04-25T07:35:42;13.17;;;11.60;;
9438;SDS011;5176;42.622;25.386;2023-04-25T07:38:11;11.57;;;10.37;;
9438;SDS011;5176;42.622;25.386;2023-04-25T07:40:40;10.82;;;9.68;;
9438;SDS011;5176;42.622;25.386;2023-04-25T07:43:08;12.00;;;10.80;;
9438;SDS011;5176;42.622;25.386;2023-04-25T07:45:40;11.68;;;10.48;;
9438;SDS011;5176;42.622;25.386;2023-04-25T07:48:09;12.95;;;11.23;;
9438;SDS011;5176;42.622;25.386;2023-04-25T07:50:38;13.13;;;11.75;;
9438;SDS011;5176;42.622;25.386;2023-04-25T07:53:07;12.15;;;10.77;;
9438;SDS011;5176;42.622;25.386;2023-04-25T07:55:35;16.10;;;11.52;;
9438;SDS011;5176;42.622;25.386;2023-04-25T07:58:06;10.57;;;9.48;;
9438;SDS011;5176;42.622;25.386;2023-04-25T08:00:35;11.30;;;10.20;;
9438;SDS011;5176;42.622;25.386;2023-04-25T08:03:06;10.23;;;9.15;;
9438;SDS011;5176;42.622;25.386;2023-04-25T08:05:35;16.98;;;9.70;;
9438;SDS011;5176;42.622;25.386;2023-04-25T08:08:04;11.45;;;8.48;;
9438;SDS011;5176;42.622;25.386;2023-04-25T08:10:34;15.13;;;8.35;;
9438;SDS011;5176;42.622;25.386;2023-04-25T08:13:03;7.20;;;6.57;;
9438;SDS011;5176;42.622;25.386;2023-04-25T08:15:31;8.10;;;7.13;;
9438;SDS011;5176;42.622;25.386;2023-04-25T08:18:00;7.28;;;6.57;;
9438;SDS011;5176;42.622;25.386;2023-04-25T08:20:30;8.13;;;5.95;;
9438;SDS011;5176;42.622;25.386;2023-04-25T08:22:59;5.75;;;5.25;;
9438;SDS011;5176;42.622;25.386;2023-04-25T08:25:28;6.32;;;5.78;;
9438;SDS011;5176;42.622;25.386;2023-04-25T08:27:57;10.68;;;5.05;;
9438;SDS011;5176;42.622;25.386;2023-04-25T08:30:26;5.80;;;5.30;;
9438;SDS011;5176;42.622;25.386;2023-04-25T08:32:56;7.53;;;5.45;;
9438;SDS011;5176;42.622;25.386;2023-04-25T08:35:24;5.05;;;4.55;;
9438;SDS011;5176;42.622;25.386;2023-04-25T08:37:55;5.88;;;4.00;;
9438;SDS011;5176;42.622;25.386;2023-04-25T08:40:24;4.80;;;3.88;;
9438;SDS011;5176;42.622;25.386;2023-04-25T08:42:57;3.92;;;3.60;;
9438;SDS011;5176;42.622;25.386;2023-04-25T08:45:27;4.90;;;3.70;;
9438;SDS011;5176;42.622;25.386;2023-04-25T08:47:59;4.35;;;3.95;;
9438;SDS011;5176;42.622;25.386;2023-04-25T08:50:30;7.63;;;4.00;;
9438;SDS011;5176;42.622;25.386;2023-04-25T08:53:00;3.22;;;2.92;;
9438;SDS011;5176;42.622;25.386;2023-04-25T08:55:37;3.72;;;3.42;;
9438;SDS011;5176;42.622;25.386;2023-04-25T08:58:09;4.70;;;4.30;;
9438;SDS011;5176;42.622;25.386;2023-04-25T09:00:39;4.20;;;3.90;;
9438;SDS011;5176;42.622;25.386;2023-04-25T09:03:08;3.70;;;3.40;;
9438;SDS011;5176;42.622;25.386;2023-04-25T09:05:39;5.03;;;3.30;;
9438;SDS011;5176;42.622;25.386;2023-04-25T09:08:10;4.15;;;3.75;;
9438;SDS011;5176;42.622;25.386;2023-04-25T09:10:39;4.43;;;3.22;;
9438;SDS011;5176;42.622;25.386;2023-04-25T09:13:08;3.88;;;3.47;;
9438;SDS011;5176;42.622;25.386;2023-04-25T09:15:49;3.63;;;3.33;;
9438;SDS011;5176;42.622;25.386;2023-04-25T09:18:24;3.92;;;3.55;;
9438;SDS011;5176;42.622;25.386;2023-04-25T09:20:53;4.50;;;4.10;;
9438;SDS011;5176;42.622;25.386;2023-04-25T09:23:25;4.07;;;3.78;;
9438;SDS011;5176;42.622;25.386;2023-04-25T09:25:53;4.00;;;3.60;;
9438;SDS011;5176;42.622;25.386;2023-04-25T09:28:23;4.38;;;3.97;;
9438;SDS011;5176;42.622;25.386;2023-04-25T09:30:54;3.92;;;3.53;;
9438;SDS011;5176;42.622;25.386;2023-04-25T09:33:29;3.67;;;3.30;;
9438;SDS011;5176;42.622;25.386;2023-04-25T09:36:03;3.67;;;3.40;;
9438;SDS011;5176;42.622;25.386;2023-04-25T09:38:41;3.88;;;3.58;;
9438;SDS011;5176;42.622;25.386;2023-04-25T09:41:11;4.20;;;3.90;;
9438;SDS011;5176;42.622;25.386;2023-04-25T09:43:40;5.07;;;3.85;;
9438;SDS011;5176;42.622;25.386;2023-04-25T09:46:13;4.40;;;4.00;;
9438;SDS011;5176;42.622;25.386;2023-04-25T09:48:47;3.83;;;3.53;;
9438;SDS011;5176;42.622;25.386;2023-04-25T09:51:17;3.80;;;3.50;;
9438;SDS011;5176;42.622;25.386;2023-04-25T09:53:48;4.45;;;3.72;;
9438;SDS011;5176;42.622;25.386;2023-04-25T09:56:17;7.38;;;4.20;;
9438;SDS011;5176;42.622;25.386;2023-04-25T09:58:48;3.70;;;3.40;;
9438;SDS011;5176;42.622;25.386;2023-04-25T10:01:21;3.40;;;3.05;;
9438;SDS011;5176;42.622;25.386;2023-04-25T10:03:52;3.35;;;3.15;;
9438;SDS011;5176;42.622;25.386;2023-04-25T10:06:25;2.90;;;2.70;;
9438;SDS011;5176;42.622;25.386;2023-04-25T10:08:56;4.55;;;3.00;;
9438;SDS011;5176;42.622;25.386;2023-04-25T10:11:26;3.00;;;2.80;;
9438;SDS011;5176;42.622;25.386;2023-04-25T10:13:55;2.90;;;2.70;;
9438;SDS011;5176;42.622;25.386;2023-04-25T10:16:25;3.00;;;2.80;;
9438;SDS011;5176;42.622;25.386;2023-04-25T10:18:54;4.13;;;3.10;;
9438;SDS011;5176;42.622;25.386;2023-04-25T10:21:23;2.85;;;2.65;;
9438;SDS011;5176;42.622;25.386;2023-04-25T10:23:56;3.22;;;2.97;;
9438;SDS011;5176;42.622;25.386;2023-04-25T10:26:26;3.13;;;2.90;;
9438;SDS011;5176;42.622;25.386;2023-04-25T10:28:55;4.15;;;3.08;;
9438;SDS011;5176;42.622;25.386;2023-04-25T10:31:25;4.13;;;2.90;;
9438;SDS011;5176;42.622;25.386;2023-04-25T10:33:54;3.08;;;2.88;;
9438;SDS011;5176;42.622;25.386;2023-04-25T10:36:23;4.32;;;2.90;;
9438;SDS011;5176;42.622;25.386;2023-04-25T10:38:53;2.60;;;2.40;;
9438;SDS011;5176;42.622;25.386;2023-04-25T10:41:25;2.88;;;2.67;;
9438;SDS011;5176;42.622;25.386;2023-04-25T10:43:59;3.15;;;2.90;;
9438;SDS011;5176;42.622;25.386;2023-04-25T10:46:29;2.70;;;2.50;;
9438;SDS011;5176;42.622;25.386;2023-04-25T10:48:59;2.75;;;2.65;;
9438;SDS011;5176;42.622;25.386;2023-04-25T10:51:28;3.08;;;2.80;;
9438;SDS011;5176;42.622;25.386;2023-04-25T10:53:59;3.50;;;2.67;;
9438;SDS011;5176;42.622;25.386;2023-04-25T10:56:31;3.05;;;2.33;;
9438;SDS011;5176;42.622;25.386;2023-04-25T10:59:07;2.58;;;2.47;;
9438;SDS011;5176;42.622;25.386;2023-04-25T11:01:38;2.60;;;2.45;;
9438;SDS011;5176;42.622;25.386;2023-04-25T11:04:18;2.40;;;2.30;;
9438;SDS011;5176;42.622;25.386;2023-04-25T11:06:55;2.58;;;2.40;;
9438;SDS011;5176;42.622;25.386;2023-04-25T11:09:30;2.20;;;2.10;;
9438;SDS011;5176;42.622;25.386;2023-04-25T11:12:02;2.60;;;2.40;;
9438;SDS011;5176;42.622;25.386;2023-04-25T11:14:31;2.50;;;2.30;;
9438;SDS011;5176;42.622;25.386;2023-04-25T11:17:00;3.42;;;2.28;;
9438;SDS011;5176;42.622;25.386;2023-04-25T11:19:29;2.60;;;2.40;;
9438;SDS011;5176;42.622;25.386;2023-04-25T11:21:58;3.00;;;2.80;;
9438;SDS011;5176;42.622;25.386;2023-04-25T11:24:28;2.50;;;2.30;;
9438;SDS011;5176;42.622;25.386;2023-04-25T11:26:57;2.22;;;2.13;;
9438;SDS011;5176;42.622;25.386;2023-04-25T11:29:30;2.67;;;2.45;;
9438;SDS011;5176;42.622;25.386;2023-04-25T11:32:00;2.92;;;2.53;;
9438;SDS011;5176;42.622;25.386;2023-04-25T11:34:29;7.18;;;5.25;;
9438;SDS011;5176;42.622;25.386;2023-04-25T11:36:59;3.60;;;3.30;;
9438;SDS011;5176;42.622;25.386;2023-04-25T11:39:28;2.70;;;2.50;;
9438;SDS011;5176;42.622;25.386;2023-04-25T11:41:57;3.20;;;2.90;;
9438;SDS011;5176;42.622;25.386;2023-04-25T11:44:26;2.85;;;2.70;;
9438;SDS011;5176;42.622;25.386;2023-04-25T11:46:55;3.50;;;2.83;;
9438;SDS011;5176;42.622;25.386;2023-04-25T11:49:24;2.70;;;2.50;;
9438;SDS011;5176;42.622;25.386;2023-04-25T11:51:58;2.42;;;2.33;;
9438;SDS011;5176;42.622;25.386;2023-04-25T11:54:27;2.60;;;2.40;;
9438;SDS011;5176;42.622;25.386;2023-04-25T11:56:56;2.65;;;2.55;;
9438;SDS011;5176;42.622;25.386;2023-04-25T11:59:25;2.80;;;2.60;;
9438;SDS011;5176;42.622;25.386;2023-04-25T12:01:54;2.80;;;2.53;;
9438;SDS011;5176;42.622;25.386;2023-04-25T12:04:24;2.60;;;2.40;;
9438;SDS011;5176;42.622;25.386;2023-04-25T12:06:53;2.35;;;2.22;;
9438;SDS011;5176;42.622;25.386;2023-04-25T12:09:27;3.25;;;3.05;;
9438;SDS011;5176;42.622;25.386;2023-04-25T12:11:58;2.78;;;2.58;;
9438;SDS011;5176;42.622;25.386;2023-04-25T12:14:29;3.80;;;2.92;;
9438;SDS011;5176;42.622;25.386;2023-04-25T12:17:01;5.60;;;2.45;;
9438;SDS011;5176;42.622;25.386;2023-04-25T12:19:32;3.03;;;2.50;;
9438;SDS011;5176;42.622;25.386;2023-04-25T12:22:01;4.05;;;2.60;;
9438;SDS011;5176;42.622;25.386;2023-04-25T12:24:33;4.13;;;2.75;;
9438;SDS011;5176;42.622;25.386;2023-04-25T12:27:02;6.13;;;3.65;;
9438;SDS011;5176;42.622;25.386;2023-04-25T12:29:33;3.00;;;2.80;;
9438;SDS011;5176;42.622;25.386;2023-04-25T12:32:04;4.40;;;3.05;;
9438;SDS011;5176;42.622;25.386;2023-04-25T12:34:33;3.95;;;3.25;;
9438;SDS011;5176;42.622;25.386;2023-04-25T12:37:02;4.18;;;3.30;;
9438;SDS011;5176;42.622;25.386;2023-04-25T12:39:31;6.95;;;3.80;;
9438;SDS011;5176;42.622;25.386;2023-04-25T12:42:00;3.40;;;3.10;;
9438;SDS011;5176;42.622;25.386;2023-04-25T12:44:29;3.03;;;2.83;;
9438;SDS011;5176;42.622;25.386;2023-04-25T12:46:58;3.95;;;3.20;;
9438;SDS011;5176;42.622;25.386;2023-04-25T12:49:28;3.20;;;2.85;;
9438;SDS011;5176;42.622;25.386;2023-04-25T12:51:57;2.97;;;2.72;;
9438;SDS011;5176;42.622;25.386;2023-04-25T12:54:26;3.25;;;2.95;;
9438;SDS011;5176;42.622;25.386;2023-04-25T12:56:54;5.28;;;2.85;;
9438;SDS011;5176;42.622;25.386;2023-04-25T12:59:24;5.10;;;3.10;;
9438;SDS011;5176;42.622;25.386;2023-04-25T13:01:53;2.92;;;2.70;;
9438;SDS011;5176;42.622;25.386;2023-04-25T13:04:21;6.00;;;3.00;;
9438;SDS011;5176;42.622;25.386;2023-04-25T13:06:52;3.00;;;2.80;;
9438;SDS011;5176;42.622;25.386;2023-04-25T13:09:20;2.83;;;2.60;;
9438;SDS011;5176;42.622;25.386;2023-04-25T13:11:49;2.90;;;2.70;;
9438;SDS011;5176;42.622;25.386;2023-04-25T13:14:18;2.75;;;2.58;;
9438;SDS011;5176;42.622;25.386;2023-04-25T13:16:47;3.05;;;2.63;;
9438;SDS011;5176;42.622;25.386;2023-04-25T13:19:15;3.38;;;3.08;;
9438;SDS011;5176;42.622;25.386;2023-04-25T13:21:44;3.72;;;2.50;;
9438;SDS011;5176;42.622;25.386;2023-04-25T13:24:14;2.33;;;2.22;;
9438;SDS011;5176;42.622;25.386;2023-04-25T13:26:43;2.60;;;2.45;;
9438;SDS011;5176;42.622;25.386;2023-04-25T13:29:11;4.45;;;2.90;;
9438;SDS011;5176;42.622;25.386;2023-04-25T13:31:40;2.60;;;2.40;;
9438;SDS011;5176;42.622;25.386;2023-04-25T13:34:08;2.95;;;2.20;;
9438;SDS011;5176;42.622;25.386;2023-04-25T13:36:38;3.00;;;2.80;;
9438;SDS011;5176;42.622;25.386;2023-04-25T13:39:07;2.80;;;2.60;;
9438;SDS011;5176;42.622;25.386;2023-04-25T13:41:37;4.68;;;2.53;;
9438;SDS011;5176;42.622;25.386;2023-04-25T13:44:06;2.35;;;2.25;;
9438;SDS011;5176;42.622;25.386;2023-04-25T13:46:34;2.55;;;2.33;;
9438;SDS011;5176;42.622;25.386;2023-04-25T13:49:03;5.65;;;3.03;;
9438;SDS011;5176;42.622;25.386;2023-04-25T13:51:32;3.40;;;3.15;;
9438;SDS011;5176;42.622;25.386;2023-04-25T13:54:00;2.58;;;2.42;;
9438;SDS011;5176;42.622;25.386;2023-04-25T13:56:29;3.50;;;2.63;;
9438;SDS011;5176;42.622;25.386;2023-04-25T13:59:00;7.55;;;3.10;;
9438;SDS011;5176;42.622;25.386;2023-04-25T14:01:29;4.57;;;3.35;;
9438;SDS011;5176;42.622;25.386;2023-04-25T14:04:00;2.60;;;2.42;;
9438;SDS011;5176;42.622;25.386;2023-04-25T14:06:30;2.97;;;2.78;;
9438;SDS011;5176;42.622;25.386;2023-04-25T14:08:59;3.42;;;2.53;;
9438;SDS011;5176;42.622;25.386;2023-04-25T14:11:28;4.03;;;3.17;;
9438;SDS011;5176;42.622;25.386;2023-04-25T14:13:56;4.05;;;3.08;;
9438;SDS011;5176;42.622;25.386;2023-04-25T14:16:27;5.57;;;3.17;;
9438;SDS011;5176;42.622;25.386;2023-04-25T14:18:55;3.00;;;2.80;;
9438;SDS011;5176;42.622;25.386;2023-04-25T14:21:24;3.53;;;3.17;;
9438;SDS011;5176;42.622;25.386;2023-04-25T14:23:53;4.15;;;3.75;;
9438;SDS011;5176;42.622;25.386;2023-04-25T14:26:22;4.57;;;3.33;;
9438;SDS011;5176;42.622;25.386;2023-04-25T14:28:51;3.75;;;3.15;;
9438;SDS011;5176;42.622;25.386;2023-04-25T14:31:20;5.07;;;3.05;;
9438;SDS011;5176;42.622;25.386;2023-04-25T14:33:50;3.40;;;3.10;;
9438;SDS011;5176;42.622;25.386;2023-04-25T14:36:18;3.83;;;3.00;;
9438;SDS011;5176;42.622;25.386;2023-04-25T14:38:47;4.10;;;3.10;;
9438;SDS011;5176;42.622;25.386;2023-04-25T14:41:16;4.05;;;2.88;;
9438;SDS011;5176;42.622;25.386;2023-04-25T14:43:44;4.10;;;3.08;;
9438;SDS011;5176;42.622;25.386;2023-04-25T14:46:13;3.05;;;2.70;;
9438;SDS011;5176;42.622;25.386;2023-04-25T14:48:41;3.92;;;3.35;;
9438;SDS011;5176;42.622;25.386;2023-04-25T14:51:11;4.30;;;2.90;;
9438;SDS011;5176;42.622;25.386;2023-04-25T14:53:40;2.90;;;2.55;;
9438;SDS011;5176;42.622;25.386;2023-04-25T14:56:09;5.82;;;3.08;;
9438;SDS011;5176;42.622;25.386;2023-04-25T14:58:38;6.38;;;3.60;;
9438;SDS011;5176;42.622;25.386;2023-04-25T15:01:07;3.28;;;2.97;;
9438;SDS011;5176;42.622;25.386;2023-04-25T15:03:36;3.58;;;2.45;;
9438;SDS011;5176;42.622;25.386;2023-04-25T15:06:05;2.60;;;2.40;;
9438;SDS011;5176;42.622;25.386;2023-04-25T15:08:35;4.88;;;2.90;;
9438;SDS011;5176;42.622;25.386;2023-04-25T15:11:04;6.85;;;2.80;;